Newark, Delaware
Current Conditions -  °F | °C
As of 3:51 AM on Wednesday 28 Jan 2015 (Local Time) from KILG Reporting Station
Clear Clear  
Wind Chill:   Ceiling: Unl
Heat Index: 19°   Visibility: 10mi
Dew Point:   Wind: 13mph
Humidity: 52%   Direction: 320°NW
Pressure: 30.01"   Gusts: NA
Location:  39.68°N, 75.76°W
Report Text: KILG 280851Z 32011KT 10SM CLR M07/M16 A3001 RMK AO2 SLP164 T10721156 51023
Loading
Personal Weather Stations






























Interactive Weather Map New forecast layout! Learn more

10-Day Weather Forecast

Advertisements
Track Severe Weather on mobile